createdAt,value
2022-12-09T00:02:16.957Z,5.63
2022-12-09T00:04:44.460Z,5.83
2022-12-09T00:07:11.734Z,5.90
2022-12-09T00:09:38.823Z,4.93
2022-12-09T00:12:06.118Z,5.80
2022-12-09T00:14:33.235Z,5.70
2022-12-09T00:17:00.543Z,5.70
2022-12-09T00:19:27.760Z,6.03
2022-12-09T00:21:54.773Z,5.50
2022-12-09T00:24:21.893Z,5.80
2022-12-09T00:26:49.003Z,5.63
2022-12-09T00:29:16.191Z,5.07
2022-12-09T00:31:43.359Z,5.90
2022-12-09T00:34:12.578Z,5.27
2022-12-09T00:36:40.015Z,5.17
2022-12-09T00:39:07.162Z,6.13
2022-12-09T00:41:34.229Z,5.50
2022-12-09T00:44:01.287Z,5.37
2022-12-09T00:46:28.804Z,4.90
2022-12-09T00:48:56.252Z,5.83
2022-12-09T00:51:24.196Z,5.50
2022-12-09T00:53:56.025Z,5.30
2022-12-09T00:56:24.784Z,5.00
2022-12-09T00:58:52.067Z,5.13
2022-12-09T01:01:19.214Z,5.60
2022-12-09T01:03:46.604Z,5.07
2022-12-09T01:06:17.594Z,5.60
2022-12-09T01:08:45.939Z,5.10
2022-12-09T01:11:21.160Z,5.70
2022-12-09T01:13:49.000Z,4.80
2022-12-09T01:16:20.564Z,4.77
2022-12-09T01:18:47.973Z,5.30
2022-12-09T01:21:15.346Z,5.37
2022-12-09T01:23:42.556Z,5.67
2022-12-09T01:26:09.890Z,5.87
2022-12-09T01:28:38.295Z,5.57
2022-12-09T01:31:13.168Z,5.50
2022-12-09T01:33:40.882Z,5.40
2022-12-09T01:36:09.105Z,5.83
2022-12-09T01:38:36.505Z,5.77
2022-12-09T01:41:03.887Z,5.60
2022-12-09T01:43:31.113Z,5.80
2022-12-09T01:45:58.225Z,6.13
2022-12-09T01:48:27.797Z,5.17
2022-12-09T01:50:56.298Z,5.30
2022-12-09T01:53:26.660Z,5.20
2022-12-09T01:55:58.682Z,5.43
2022-12-09T01:58:25.953Z,5.10
2022-12-09T02:00:53.292Z,5.33
2022-12-09T02:03:20.664Z,5.73
2022-12-09T02:05:48.238Z,5.20
2022-12-09T02:08:17.239Z,5.80
2022-12-09T02:11:02.622Z,5.07
2022-12-09T02:13:29.888Z,4.80
2022-12-09T02:16:01.963Z,5.50
2022-12-09T02:18:47.917Z,5.37
2022-12-09T02:21:27.934Z,5.50
2022-12-09T02:24:11.166Z,5.27
2022-12-09T02:26:44.628Z,4.63
2022-12-09T02:29:20.605Z,5.13
2022-12-09T02:31:50.504Z,5.90
2022-12-09T02:34:18.587Z,5.13
2022-12-09T02:36:55.808Z,5.57
2022-12-09T02:39:25.657Z,5.53
2022-12-09T02:41:53.610Z,5.73
2022-12-09T02:44:22.573Z,5.03
2022-12-09T02:46:50.517Z,5.67
2022-12-09T02:49:18.281Z,5.57
2022-12-09T02:51:45.860Z,5.07
2022-12-09T02:54:14.946Z,5.93
2022-12-09T02:56:44.231Z,6.00
2022-12-09T02:59:11.359Z,6.10
2022-12-09T03:01:45.692Z,6.53
2022-12-09T03:04:18.818Z,6.87
2022-12-09T03:06:49.909Z,6.03
2022-12-09T03:09:21.629Z,5.80
2022-12-09T03:11:49.088Z,5.60
2022-12-09T03:14:32.327Z,5.33
2022-12-09T03:17:18.410Z,5.83
2022-12-09T03:19:48.998Z,5.83
2022-12-09T03:22:17.937Z,5.17
2022-12-09T03:24:47.992Z,5.37
2022-12-09T03:27:17.568Z,5.80
2022-12-09T03:29:47.727Z,5.90
2022-12-09T03:32:15.466Z,6.03
2022-12-09T03:34:43.730Z,6.00
2022-12-09T03:37:11.519Z,5.50
2022-12-09T03:39:39.608Z,5.60
2022-12-09T03:42:10.998Z,5.67
2022-12-09T03:44:41.458Z,5.30
2022-12-09T03:47:09.841Z,5.00
2022-12-09T03:49:38.408Z,5.57
2022-12-09T03:52:11.266Z,5.70
2022-12-09T03:54:44.604Z,5.80
2022-12-09T03:57:19.022Z,5.50
2022-12-09T03:59:51.995Z,5.67
2022-12-09T04:02:19.752Z,5.60
2022-12-09T04:04:47.465Z,5.00
2022-12-09T04:07:14.635Z,5.13
2022-12-09T04:09:42.215Z,5.63
2022-12-09T04:12:10.032Z,5.40
2022-12-09T04:14:37.349Z,5.20
2022-12-09T04:17:04.872Z,5.10
2022-12-09T04:19:32.094Z,5.33
2022-12-09T04:21:59.537Z,5.20
2022-12-09T04:24:26.818Z,5.67
2022-12-09T04:26:53.960Z,4.97
2022-12-09T04:29:21.219Z,5.03
2022-12-09T04:31:48.802Z,5.00
2022-12-09T04:34:16.243Z,5.50
2022-12-09T04:36:43.701Z,4.50
2022-12-09T04:39:10.827Z,4.77
2022-12-09T04:41:38.271Z,5.30
2022-12-09T04:44:05.920Z,5.10
2022-12-09T04:46:33.220Z,4.90
2022-12-09T04:49:00.640Z,4.10
2022-12-09T04:51:28.043Z,4.60
2022-12-09T04:53:55.913Z,4.93
2022-12-09T04:56:23.095Z,4.07
2022-12-09T04:58:50.777Z,4.33
2022-12-09T05:01:21.607Z,4.30
2022-12-09T05:03:53.251Z,4.13
2022-12-09T05:06:21.395Z,4.23
2022-12-09T05:08:49.185Z,4.40
2022-12-09T05:11:17.188Z,4.47
2022-12-09T05:13:44.915Z,5.07
2022-12-09T05:16:16.397Z,4.47
2022-12-09T05:18:45.047Z,4.37
2022-12-09T05:21:14.973Z,4.73
2022-12-09T05:23:42.533Z,4.90
2022-12-09T05:26:16.013Z,4.93
2022-12-09T05:28:43.175Z,4.23
2022-12-09T05:31:12.358Z,4.40
2022-12-09T05:33:39.727Z,4.13
2022-12-09T05:36:09.934Z,5.57
2022-12-09T05:38:37.607Z,4.97
2022-12-09T05:41:05.335Z,4.77
2022-12-09T05:43:33.421Z,4.67
2022-12-09T05:46:02.001Z,5.03
2022-12-09T05:48:29.554Z,4.87
2022-12-09T05:51:00.693Z,4.47
2022-12-09T05:53:28.492Z,4.73
2022-12-09T05:55:55.744Z,4.97
2022-12-09T05:58:22.941Z,4.70
2022-12-09T06:00:50.214Z,4.83
2022-12-09T06:03:17.933Z,5.30
2022-12-09T06:05:45.445Z,4.77
2022-12-09T06:08:13.388Z,4.53
2022-12-09T06:10:41.563Z,4.67
2022-12-09T06:13:09.336Z,5.27
2022-12-09T06:15:36.838Z,4.90
2022-12-09T06:18:04.400Z,5.27
2022-12-09T06:20:32.037Z,5.10
2022-12-09T06:22:59.493Z,4.80
2022-12-09T06:25:26.732Z,5.00
2022-12-09T06:27:54.096Z,5.00
2022-12-09T06:30:21.685Z,5.03
2022-12-09T06:32:49.172Z,5.07
2022-12-09T06:35:17.019Z,4.73
2022-12-09T06:37:44.488Z,4.90
2022-12-09T06:40:12.439Z,4.37
2022-12-09T06:42:39.608Z,4.93
2022-12-09T06:45:07.842Z,4.97
2022-12-09T06:47:35.297Z,4.77
2022-12-09T06:50:06.963Z,5.10
2022-12-09T06:52:35.321Z,4.93
2022-12-09T06:55:03.088Z,5.40
2022-12-09T06:57:30.631Z,5.23
2022-12-09T06:59:58.156Z,4.97
2022-12-09T07:02:25.735Z,5.83
2022-12-09T07:04:55.424Z,6.13
2022-12-09T07:07:23.947Z,5.73
2022-12-09T07:09:51.299Z,5.80
2022-12-09T07:12:18.614Z,5.77
2022-12-09T07:14:46.293Z,5.90
2022-12-09T07:17:20.165Z,4.67
2022-12-09T07:19:48.263Z,5.63
2022-12-09T07:22:15.945Z,4.70
2022-12-09T07:24:43.922Z,5.80
2022-12-09T07:27:19.275Z,5.00
2022-12-09T07:29:47.071Z,5.20
2022-12-09T07:32:14.875Z,5.07
2022-12-09T07:34:43.069Z,6.00
2022-12-09T07:37:10.833Z,6.03
2022-12-09T07:39:38.252Z,4.93
2022-12-09T07:42:05.930Z,5.60
2022-12-09T07:44:33.160Z,5.40
2022-12-09T07:47:00.492Z,5.40
2022-12-09T07:49:28.280Z,5.47
2022-12-09T07:51:55.601Z,5.70
2022-12-09T07:54:22.683Z,4.97
2022-12-09T07:56:50.027Z,6.70
2022-12-09T07:59:17.783Z,5.50
2022-12-09T08:01:45.397Z,5.67
2022-12-09T08:04:14.288Z,6.30
2022-12-09T08:06:41.872Z,6.30
2022-12-09T08:09:11.590Z,5.90
2022-12-09T08:11:39.594Z,6.10
2022-12-09T08:14:12.365Z,6.10
2022-12-09T08:16:40.632Z,6.10
2022-12-09T08:19:08.531Z,6.17
2022-12-09T08:21:36.173Z,6.40
2022-12-09T08:24:05.967Z,5.33
2022-12-09T08:26:34.248Z,6.30
2022-12-09T08:29:01.958Z,6.10
2022-12-09T08:31:30.293Z,6.57
2022-12-09T08:33:58.764Z,5.93
2022-12-09T08:36:27.340Z,6.90
2022-12-09T08:38:55.404Z,7.37
2022-12-09T08:41:35.433Z,6.07
2022-12-09T08:44:12.266Z,7.27
2022-12-09T08:46:41.211Z,6.57
2022-12-09T08:49:09.310Z,6.93
2022-12-09T08:51:36.854Z,6.63
2022-12-09T08:54:05.246Z,7.43
2022-12-09T08:56:33.561Z,6.77
2022-12-09T08:59:00.855Z,5.67
2022-12-09T09:01:32.798Z,6.50
2022-12-09T09:04:05.151Z,6.73
2022-12-09T09:06:32.724Z,6.63
2022-12-09T09:09:00.376Z,6.33
2022-12-09T09:11:28.138Z,6.57
2022-12-09T09:13:56.191Z,5.60
2022-12-09T09:16:24.795Z,6.27
2022-12-09T09:18:52.535Z,5.90
2022-12-09T09:21:21.767Z,5.80
2022-12-09T09:23:49.465Z,5.67
2022-12-09T09:26:18.564Z,5.63
2022-12-09T09:28:46.590Z,6.43
2022-12-09T09:31:18.411Z,5.77
2022-12-09T09:33:46.125Z,6.53
2022-12-09T09:36:14.984Z,6.17
2022-12-09T09:38:42.557Z,6.40
2022-12-09T09:41:28.655Z,7.03
2022-12-09T09:43:56.317Z,6.60
2022-12-09T09:46:36.051Z,6.80
2022-12-09T09:49:04.900Z,6.33
2022-12-09T09:51:34.355Z,6.80
2022-12-09T09:54:06.878Z,7.40
2022-12-09T09:56:41.119Z,7.27
2022-12-09T09:59:11.841Z,7.17
2022-12-09T10:01:39.542Z,7.57
2022-12-09T10:04:13.125Z,6.53
2022-12-09T10:06:46.785Z,7.80
2022-12-09T10:09:33.146Z,7.27
2022-12-09T10:12:18.933Z,6.33
2022-12-09T10:14:46.739Z,6.90
2022-12-09T10:17:32.341Z,7.77
2022-12-09T10:20:15.982Z,7.63
2022-12-09T10:23:02.027Z,7.43
2022-12-09T10:25:33.909Z,7.50
2022-12-09T10:28:12.916Z,7.63
2022-12-09T10:30:44.109Z,7.60
2022-12-09T10:33:15.854Z,8.77
2022-12-09T10:35:43.370Z,7.67
2022-12-09T10:38:15.580Z,8.00
2022-12-09T10:40:49.978Z,7.77
2022-12-09T10:43:44.182Z,7.80
2022-12-09T10:46:21.519Z,7.37
2022-12-09T10:48:49.715Z,8.00
2022-12-09T10:51:17.696Z,8.27
2022-12-09T10:53:51.817Z,7.97
2022-12-09T10:56:21.838Z,7.47
2022-12-09T10:58:49.446Z,8.00
2022-12-09T11:01:17.488Z,8.17
2022-12-09T11:03:47.621Z,7.40
2022-12-09T11:06:21.725Z,7.63
2022-12-09T11:08:56.786Z,7.30
2022-12-09T11:11:42.918Z,8.37
2022-12-09T11:14:22.582Z,7.70
2022-12-09T11:16:52.824Z,7.83
2022-12-09T11:19:29.333Z,7.93
2022-12-09T11:22:13.638Z,7.53
2022-12-09T11:24:41.586Z,8.30
2022-12-09T11:27:28.075Z,7.47
2022-12-09T11:30:11.190Z,7.10
2022-12-09T11:32:52.245Z,7.93
2022-12-09T11:35:21.403Z,7.10
2022-12-09T11:37:48.685Z,7.23
2022-12-09T11:40:17.590Z,7.73
2022-12-09T11:42:49.663Z,7.53
2022-12-09T11:45:36.536Z,7.47
2022-12-09T11:48:32.566Z,7.23
2022-12-09T11:51:01.989Z,7.37
2022-12-09T11:53:33.610Z,6.97
2022-12-09T11:56:21.594Z,7.90
2022-12-09T11:58:51.039Z,7.17
2022-12-09T12:01:31.815Z,8.03
2022-12-09T12:04:05.839Z,6.93
2022-12-09T12:06:43.337Z,7.63
2022-12-09T12:09:20.076Z,7.13
2022-12-09T12:12:01.758Z,7.90
2022-12-09T12:14:30.202Z,7.87
2022-12-09T12:17:16.034Z,7.50
2022-12-09T12:19:44.125Z,7.70
2022-12-09T12:22:11.155Z,7.97
2022-12-09T12:24:38.233Z,7.37
2022-12-09T12:27:14.933Z,7.10
2022-12-09T12:29:42.042Z,7.53
2022-12-09T12:32:22.869Z,7.70
2022-12-09T12:34:49.939Z,7.57
2022-12-09T12:37:26.825Z,7.70
2022-12-09T12:39:59.830Z,6.90
2022-12-09T12:42:29.660Z,6.97
2022-12-09T12:45:33.630Z,6.90
2022-12-09T12:48:12.796Z,6.67
2022-12-09T12:50:49.899Z,7.37
2022-12-09T12:53:37.353Z,7.67
2022-12-09T12:56:16.269Z,7.07
2022-12-09T12:58:49.152Z,7.37
2022-12-09T13:01:16.317Z,7.20
2022-12-09T13:03:46.431Z,8.00
2022-12-09T13:06:15.215Z,7.43
2022-12-09T13:08:48.883Z,7.90
2022-12-09T13:11:31.358Z,7.67
2022-12-09T13:14:00.828Z,6.87
2022-12-09T13:16:30.122Z,8.33
2022-12-09T13:19:05.918Z,8.07
2022-12-09T13:21:33.256Z,7.73
2022-12-09T13:24:00.308Z,6.83
2022-12-09T13:26:43.814Z,7.17
2022-12-09T13:29:10.890Z,6.70
2022-12-09T13:31:42.673Z,6.67
2022-12-09T13:34:15.524Z,6.50
2022-12-09T13:36:45.582Z,6.63
2022-12-09T13:39:13.688Z,6.90
2022-12-09T13:42:00.746Z,6.53
2022-12-09T13:44:31.337Z,6.57
2022-12-09T13:47:16.906Z,5.97
2022-12-09T13:49:52.375Z,5.90
2022-12-09T13:52:39.352Z,5.80
2022-12-09T13:55:18.000Z,5.57
2022-12-09T13:57:54.167Z,6.97
2022-12-09T14:00:21.270Z,6.73
2022-12-09T14:03:12.196Z,5.83
2022-12-09T14:05:39.766Z,5.93
2022-12-09T14:08:27.080Z,6.50
2022-12-09T14:10:54.310Z,5.37
2022-12-09T14:13:24.513Z,6.00
2022-12-09T14:16:06.719Z,6.83
2022-12-09T14:18:34.072Z,6.77
2022-12-09T14:21:19.261Z,6.60
2022-12-09T14:24:04.927Z,6.10
2022-12-09T14:26:39.398Z,6.23
2022-12-09T14:29:06.654Z,6.53
2022-12-09T14:31:44.317Z,6.70
2022-12-09T14:34:28.934Z,5.80
2022-12-09T14:37:16.224Z,6.60
2022-12-09T14:39:49.963Z,6.17
2022-12-09T14:42:29.361Z,6.20
2022-12-09T14:45:15.201Z,6.53
2022-12-09T14:47:44.481Z,6.17
2022-12-09T14:50:19.467Z,7.17
2022-12-09T14:52:51.302Z,5.73
2022-12-09T14:55:18.903Z,6.27
2022-12-09T14:57:47.170Z,6.83
2022-12-09T15:00:31.825Z,6.37
2022-12-09T15:03:31.474Z,6.03
2022-12-09T15:06:03.151Z,6.73
2022-12-09T15:08:37.530Z,6.53
2022-12-09T15:11:10.046Z,6.20
2022-12-09T15:13:41.901Z,6.93
2022-12-09T15:16:10.132Z,6.63
2022-12-09T15:18:38.362Z,6.17
2022-12-09T15:21:05.509Z,6.30
2022-12-09T15:23:34.537Z,6.80
2022-12-09T15:26:03.866Z,6.57
2022-12-09T15:28:31.915Z,6.40
2022-12-09T15:31:00.212Z,6.27
2022-12-09T15:33:28.088Z,6.73
2022-12-09T15:36:01.529Z,6.17
2022-12-09T15:38:37.375Z,6.07
2022-12-09T15:41:27.339Z,6.30
2022-12-09T15:43:59.667Z,6.10
2022-12-09T15:46:27.238Z,5.87
2022-12-09T15:48:57.465Z,6.60
2022-12-09T15:51:26.373Z,6.90
2022-12-09T15:53:58.561Z,6.50
2022-12-09T15:56:28.391Z,7.10
2022-12-09T15:58:58.454Z,6.27
2022-12-09T16:01:27.110Z,6.73
2022-12-09T16:03:55.240Z,6.67
2022-12-09T16:06:30.116Z,6.77
2022-12-09T16:08:57.382Z,6.93
2022-12-09T16:11:39.828Z,6.57
2022-12-09T16:14:07.511Z,6.40
2022-12-09T16:16:34.640Z,6.60
2022-12-09T16:19:01.788Z,6.90
2022-12-09T16:21:29.949Z,6.87
2022-12-09T16:23:57.919Z,7.00
2022-12-09T16:26:30.491Z,6.77
2022-12-09T16:28:58.765Z,6.53
2022-12-09T16:31:26.043Z,7.23
2022-12-09T16:33:53.586Z,7.40
2022-12-09T16:36:28.666Z,7.27
2022-12-09T16:39:01.930Z,7.30
2022-12-09T16:41:48.956Z,7.13
2022-12-09T16:44:19.216Z,7.17
2022-12-09T16:46:46.296Z,6.83
2022-12-09T16:49:13.445Z,7.13
2022-12-09T16:51:40.770Z,6.80
2022-12-09T16:54:20.231Z,7.03
2022-12-09T16:56:48.171Z,7.23
2022-12-09T16:59:15.254Z,7.23
2022-12-09T17:01:42.855Z,7.60
2022-12-09T17:04:14.498Z,7.77
2022-12-09T17:06:41.663Z,7.30
2022-12-09T17:09:08.838Z,7.00
2022-12-09T17:11:36.037Z,7.10
2022-12-09T17:14:03.130Z,7.40
2022-12-09T17:16:30.347Z,7.67
2022-12-09T17:18:57.473Z,6.97
2022-12-09T17:21:24.536Z,7.40
2022-12-09T17:23:51.582Z,7.70
2022-12-09T17:26:20.230Z,7.30
2022-12-09T17:28:48.047Z,6.97
2022-12-09T17:31:16.634Z,7.63
2022-12-09T17:33:43.819Z,7.33
2022-12-09T17:36:11.864Z,7.30
2022-12-09T17:38:38.939Z,7.53
2022-12-09T17:41:07.427Z,6.77
2022-12-09T17:43:34.928Z,7.47
2022-12-09T17:46:02.992Z,7.00
2022-12-09T17:48:30.708Z,7.07
2022-12-09T17:50:57.788Z,6.73
2022-12-09T17:53:24.917Z,7.40
2022-12-09T17:55:51.949Z,6.67
2022-12-09T17:58:19.052Z,6.37
2022-12-09T18:00:47.763Z,6.97
2022-12-09T18:03:27.455Z,6.90
2022-12-09T18:06:00.388Z,6.93
2022-12-09T18:08:29.726Z,6.90
2022-12-09T18:10:57.140Z,7.50
2022-12-09T18:13:24.238Z,7.40
2022-12-09T18:15:54.405Z,7.47
2022-12-09T18:18:21.918Z,7.13
2022-12-09T18:20:48.974Z,8.27
2022-12-09T18:23:16.225Z,7.53
2022-12-09T18:25:43.366Z,7.17
2022-12-09T18:28:10.551Z,7.77
2022-12-09T18:30:39.587Z,7.37
2022-12-09T18:33:08.070Z,7.90
2022-12-09T18:35:35.251Z,7.90
2022-12-09T18:38:09.645Z,8.50
2022-12-09T18:41:00.207Z,7.67
2022-12-09T18:43:38.057Z,6.40
2022-12-09T18:46:07.037Z,6.93
2022-12-09T18:48:34.171Z,7.57
2022-12-09T18:51:01.275Z,7.00
2022-12-09T18:53:28.412Z,7.50
2022-12-09T18:55:55.502Z,6.90
2022-12-09T18:58:42.539Z,7.10
2022-12-09T19:01:39.213Z,7.37
2022-12-09T19:04:07.477Z,7.03
2022-12-09T19:06:38.446Z,7.73
2022-12-09T19:09:07.229Z,7.20
2022-12-09T19:11:36.278Z,7.37
2022-12-09T19:14:04.447Z,7.67
2022-12-09T19:16:31.539Z,7.33
2022-12-09T19:19:02.463Z,7.47
2022-12-09T19:21:32.774Z,8.10
2022-12-09T19:24:00.404Z,8.70
2022-12-09T19:26:29.250Z,7.27
2022-12-09T19:29:00.596Z,6.80
2022-12-09T19:31:27.667Z,6.93
2022-12-09T19:34:05.882Z,6.57
2022-12-09T19:36:35.845Z,6.43
2022-12-09T19:39:03.973Z,6.53
2022-12-09T19:41:31.032Z,7.07
2022-12-09T19:43:58.872Z,7.53
2022-12-09T19:46:26.731Z,7.70
2022-12-09T19:48:54.409Z,7.60
2022-12-09T19:51:22.200Z,6.53
2022-12-09T19:53:49.753Z,7.00
2022-12-09T19:56:19.710Z,7.10
2022-12-09T19:58:47.219Z,6.83
2022-12-09T20:01:20.208Z,6.93
2022-12-09T20:03:48.111Z,6.63
2022-12-09T20:06:16.359Z,6.43
2022-12-09T20:08:43.949Z,6.70
2022-12-09T20:11:15.448Z,6.20
2022-12-09T20:13:42.967Z,7.40
2022-12-09T20:16:11.151Z,7.10
2022-12-09T20:18:38.683Z,6.90
2022-12-09T20:21:06.758Z,6.93
2022-12-09T20:23:34.998Z,6.97
2022-12-09T20:26:09.365Z,6.93
2022-12-09T20:28:37.179Z,6.60
2022-12-09T20:31:05.484Z,6.83
2022-12-09T20:33:32.617Z,6.40
2022-12-09T20:36:25.827Z,6.50
2022-12-09T20:38:53.854Z,6.40
2022-12-09T20:41:21.462Z,6.27
2022-12-09T20:43:49.332Z,6.37
2022-12-09T20:46:21.155Z,5.90
2022-12-09T20:48:48.704Z,6.60
2022-12-09T20:51:17.273Z,8.40
2022-12-09T20:53:45.392Z,6.73
2022-12-09T20:56:12.759Z,6.70
2022-12-09T20:58:40.673Z,7.80
2022-12-09T21:01:10.781Z,7.50
2022-12-09T21:03:37.878Z,7.40
2022-12-09T21:06:05.705Z,7.47
2022-12-09T21:08:32.918Z,7.53
2022-12-09T21:11:04.259Z,7.33
2022-12-09T21:13:31.538Z,7.83
2022-12-09T21:16:05.952Z,7.33
2022-12-09T21:18:33.610Z,7.47
2022-12-09T21:21:00.695Z,7.63
2022-12-09T21:23:35.161Z,8.17
2022-12-09T21:26:09.439Z,8.80
2022-12-09T21:28:37.287Z,8.90
2022-12-09T21:31:08.503Z,8.47
2022-12-09T21:33:35.917Z,8.70
2022-12-09T21:36:05.633Z,9.10
2022-12-09T21:38:32.698Z,7.73
2022-12-09T21:41:03.851Z,9.17
2022-12-09T21:43:32.148Z,8.93
2022-12-09T21:46:02.366Z,8.97
2022-12-09T21:48:29.541Z,9.47
2022-12-09T21:50:57.085Z,10.60
2022-12-09T21:53:24.241Z,10.10
2022-12-09T21:55:51.453Z,9.17
2022-12-09T21:58:18.697Z,9.60
2022-12-09T22:00:45.814Z,9.07
2022-12-09T22:03:13.195Z,9.40
2022-12-09T22:05:40.285Z,9.70
2022-12-09T22:08:07.465Z,9.70
2022-12-09T22:10:37.104Z,9.30
2022-12-09T22:13:04.343Z,9.23
2022-12-09T22:15:32.050Z,9.60
2022-12-09T22:17:59.171Z,9.37
2022-12-09T22:23:13.461Z,9.60
2022-12-09T22:25:40.512Z,10.23
2022-12-09T22:28:07.628Z,10.13
2022-12-09T22:30:36.465Z,9.87
2022-12-09T22:33:03.586Z,11.37
2022-12-09T22:35:30.653Z,9.87
2022-12-09T22:37:59.348Z,10.17
2022-12-09T22:40:26.741Z,10.37
2022-12-09T22:42:53.814Z,11.17
2022-12-09T22:45:20.880Z,9.73
2022-12-09T22:47:48.369Z,10.47
2022-12-09T22:50:15.427Z,9.97
2022-12-09T22:52:42.491Z,10.17
2022-12-09T22:55:09.863Z,10.40
2022-12-09T22:57:36.913Z,10.53
2022-12-09T23:00:11.379Z,10.17
2022-12-09T23:02:39.296Z,10.63
2022-12-09T23:05:07.756Z,10.07
2022-12-09T23:07:35.288Z,10.90
2022-12-09T23:10:02.519Z,9.67
2022-12-09T23:12:29.571Z,10.33
2022-12-09T23:14:56.673Z,9.80
2022-12-09T23:17:23.746Z,10.23
2022-12-09T23:19:50.814Z,9.70
2022-12-09T23:22:18.207Z,10.17
2022-12-09T23:24:45.318Z,10.10
2022-12-09T23:27:12.355Z,9.53
2022-12-09T23:29:39.523Z,9.83
2022-12-09T23:32:06.579Z,10.10
2022-12-09T23:34:33.630Z,9.93
2022-12-09T23:37:00.791Z,9.47
2022-12-09T23:39:27.906Z,10.37
2022-12-09T23:41:55.132Z,9.93
2022-12-09T23:44:22.228Z,10.37
2022-12-09T23:46:49.372Z,10.20
2022-12-09T23:49:16.530Z,9.67
2022-12-09T23:51:44.141Z,10.60
2022-12-09T23:54:11.811Z,9.73
2022-12-09T23:56:40.336Z,10.63
2022-12-09T23:59:09.029Z,9.20
